sensor_id;sensor_type;location;lat;lon;timestamp;P1;durP1;ratioP1;P2;durP2;ratioP2
74543;SDS011;63016;55.030;38.710;2023-04-03T00:01:09;4.97;;;2.20;;
74543;SDS011;63016;55.030;38.710;2023-04-03T00:03:35;4.18;;;2.33;;
74543;SDS011;63016;55.030;38.710;2023-04-03T00:06:02;3.63;;;2.50;;
74543;SDS011;63016;55.030;38.710;2023-04-03T00:08:28;3.22;;;2.28;;
74543;SDS011;63016;55.030;38.710;2023-04-03T00:10:55;4.55;;;2.42;;
74543;SDS011;63016;55.030;38.710;2023-04-03T00:13:21;5.10;;;2.40;;
74543;SDS011;63016;55.030;38.710;2023-04-03T00:15:47;9.23;;;2.55;;
74543;SDS011;63016;55.030;38.710;2023-04-03T00:18:13;3.90;;;2.35;;
74543;SDS011;63016;55.030;38.710;2023-04-03T00:20:39;4.10;;;2.05;;
74543;SDS011;63016;55.030;38.710;2023-04-03T00:23:04;3.67;;;2.10;;
74543;SDS011;63016;55.030;38.710;2023-04-03T00:25:30;6.68;;;2.50;;
74543;SDS011;63016;55.030;38.710;2023-04-03T00:27:55;4.50;;;2.30;;
74543;SDS011;63016;55.030;38.710;2023-04-03T00:30:21;5.00;;;2.45;;
74543;SDS011;63016;55.030;38.710;2023-04-03T00:32:50;6.03;;;2.80;;
74543;SDS011;63016;55.030;38.710;2023-04-03T00:35:18;4.57;;;2.30;;
74543;SDS011;63016;55.030;38.710;2023-04-03T00:37:45;3.45;;;2.40;;
74543;SDS011;63016;55.030;38.710;2023-04-03T00:40:12;3.88;;;2.22;;
74543;SDS011;63016;55.030;38.710;2023-04-03T00:42:39;4.55;;;2.55;;
74543;SDS011;63016;55.030;38.710;2023-04-03T00:47:50;5.57;;;2.90;;
74543;SDS011;63016;55.030;38.710;2023-04-03T00:50:16;6.10;;;2.60;;
74543;SDS011;63016;55.030;38.710;2023-04-03T00:52:42;3.47;;;2.17;;
74543;SDS011;63016;55.030;38.710;2023-04-03T00:55:11;7.40;;;2.30;;
74543;SDS011;63016;55.030;38.710;2023-04-03T00:57:37;9.27;;;2.63;;
74543;SDS011;63016;55.030;38.710;2023-04-03T01:00:10;6.63;;;2.42;;
74543;SDS011;63016;55.030;38.710;2023-04-03T01:02:39;4.45;;;2.60;;
74543;SDS011;63016;55.030;38.710;2023-04-03T01:05:07;3.85;;;2.33;;
74543;SDS011;63016;55.030;38.710;2023-04-03T01:07:34;7.35;;;3.13;;
74543;SDS011;63016;55.030;38.710;2023-04-03T01:10:03;6.15;;;2.80;;
74543;SDS011;63016;55.030;38.710;2023-04-03T01:12:32;6.68;;;3.05;;
74543;SDS011;63016;55.030;38.710;2023-04-03T01:15:10;5.53;;;2.90;;
74543;SDS011;63016;55.030;38.710;2023-04-03T01:17:51;5.70;;;2.80;;
74543;SDS011;63016;55.030;38.710;2023-04-03T01:26:06;5.15;;;2.78;;
74543;SDS011;63016;55.030;38.710;2023-04-03T01:28:33;5.07;;;3.10;;
74543;SDS011;63016;55.030;38.710;2023-04-03T01:33:40;4.78;;;3.00;;
74543;SDS011;63016;55.030;38.710;2023-04-03T01:36:06;6.32;;;3.58;;
74543;SDS011;63016;55.030;38.710;2023-04-03T01:38:35;8.35;;;3.40;;
74543;SDS011;63016;55.030;38.710;2023-04-03T01:41:00;8.20;;;3.90;;
74543;SDS011;63016;55.030;38.710;2023-04-03T01:43:26;8.10;;;3.47;;
74543;SDS011;63016;55.030;38.710;2023-04-03T01:45:51;4.85;;;3.40;;
74543;SDS011;63016;55.030;38.710;2023-04-03T01:48:19;7.50;;;3.28;;
74543;SDS011;63016;55.030;38.710;2023-04-03T01:50:45;8.55;;;3.17;;
74543;SDS011;63016;55.030;38.710;2023-04-03T01:53:11;3.88;;;2.88;;
74543;SDS011;63016;55.030;38.710;2023-04-03T01:55:37;8.02;;;3.10;;
74543;SDS011;63016;55.030;38.710;2023-04-03T01:58:02;6.03;;;3.45;;
74543;SDS011;63016;55.030;38.710;2023-04-03T02:00:28;5.60;;;3.55;;
74543;SDS011;63016;55.030;38.710;2023-04-03T02:02:53;5.82;;;3.25;;
74543;SDS011;63016;55.030;38.710;2023-04-03T02:05:19;6.18;;;3.42;;
74543;SDS011;63016;55.030;38.710;2023-04-03T02:07:44;6.32;;;3.60;;
74543;SDS011;63016;55.030;38.710;2023-04-03T02:10:10;4.38;;;2.97;;
74543;SDS011;63016;55.030;38.710;2023-04-03T02:12:37;6.20;;;3.25;;
74543;SDS011;63016;55.030;38.710;2023-04-03T02:15:06;6.22;;;3.22;;
74543;SDS011;63016;55.030;38.710;2023-04-03T02:17:31;7.53;;;3.22;;
74543;SDS011;63016;55.030;38.710;2023-04-03T02:19:57;8.18;;;3.42;;
74543;SDS011;63016;55.030;38.710;2023-04-03T02:22:22;6.38;;;3.20;;
74543;SDS011;63016;55.030;38.710;2023-04-03T02:24:48;6.30;;;3.00;;
74543;SDS011;63016;55.030;38.710;2023-04-03T02:27:14;6.95;;;3.00;;
74543;SDS011;63016;55.030;38.710;2023-04-03T02:29:39;5.18;;;3.30;;
74543;SDS011;63016;55.030;38.710;2023-04-03T02:32:05;7.10;;;3.10;;
74543;SDS011;63016;55.030;38.710;2023-04-03T02:34:30;6.30;;;3.15;;
74543;SDS011;63016;55.030;38.710;2023-04-03T02:36:56;4.30;;;3.05;;
74543;SDS011;63016;55.030;38.710;2023-04-03T02:39:21;8.27;;;3.47;;
74543;SDS011;63016;55.030;38.710;2023-04-03T02:41:47;5.82;;;3.30;;
74543;SDS011;63016;55.030;38.710;2023-04-03T02:44:13;6.03;;;3.40;;
74543;SDS011;63016;55.030;38.710;2023-04-03T02:46:39;6.18;;;3.33;;
74543;SDS011;63016;55.030;38.710;2023-04-03T02:49:05;6.20;;;3.70;;
74543;SDS011;63016;55.030;38.710;2023-04-03T02:51:30;9.35;;;4.18;;
74543;SDS011;63016;55.030;38.710;2023-04-03T02:53:56;6.03;;;3.63;;
74543;SDS011;63016;55.030;38.710;2023-04-03T02:56:21;10.23;;;4.43;;
74543;SDS011;63016;55.030;38.710;2023-04-03T02:58:47;9.65;;;4.35;;
74543;SDS011;63016;55.030;38.710;2023-04-03T03:01:13;7.18;;;4.22;;
74543;SDS011;63016;55.030;38.710;2023-04-03T03:03:38;8.32;;;4.75;;
74543;SDS011;63016;55.030;38.710;2023-04-03T03:06:07;7.93;;;4.55;;
74543;SDS011;63016;55.030;38.710;2023-04-03T03:08:35;9.93;;;4.95;;
74543;SDS011;63016;55.030;38.710;2023-04-03T03:11:01;9.75;;;5.30;;
74543;SDS011;63016;55.030;38.710;2023-04-03T03:13:27;10.35;;;4.82;;
74543;SDS011;63016;55.030;38.710;2023-04-03T03:15:53;8.95;;;4.82;;
74543;SDS011;63016;55.030;38.710;2023-04-03T03:18:19;8.68;;;4.82;;
74543;SDS011;63016;55.030;38.710;2023-04-03T03:20:44;10.68;;;5.18;;
74543;SDS011;63016;55.030;38.710;2023-04-03T03:23:10;9.52;;;5.28;;
74543;SDS011;63016;55.030;38.710;2023-04-03T03:25:39;9.80;;;5.32;;
74543;SDS011;63016;55.030;38.710;2023-04-03T03:28:05;10.43;;;5.68;;
74543;SDS011;63016;55.030;38.710;2023-04-03T03:30:31;12.05;;;5.75;;
74543;SDS011;63016;55.030;38.710;2023-04-03T03:32:57;13.65;;;5.90;;
74543;SDS011;63016;55.030;38.710;2023-04-03T03:35:23;10.90;;;5.13;;
74543;SDS011;63016;55.030;38.710;2023-04-03T03:37:48;11.50;;;5.55;;
74543;SDS011;63016;55.030;38.710;2023-04-03T03:40:14;12.82;;;5.47;;
74543;SDS011;63016;55.030;38.710;2023-04-03T03:42:40;12.25;;;5.00;;
74543;SDS011;63016;55.030;38.710;2023-04-03T03:45:06;10.25;;;4.85;;
74543;SDS011;63016;55.030;38.710;2023-04-03T03:47:32;9.73;;;4.97;;
74543;SDS011;63016;55.030;38.710;2023-04-03T03:49:57;9.43;;;4.90;;
74543;SDS011;63016;55.030;38.710;2023-04-03T03:52:23;8.75;;;5.28;;
74543;SDS011;63016;55.030;38.710;2023-04-03T03:54:48;9.73;;;5.55;;
74543;SDS011;63016;55.030;38.710;2023-04-03T03:57:14;12.38;;;4.90;;
74543;SDS011;63016;55.030;38.710;2023-04-03T03:59:40;11.23;;;5.97;;
74543;SDS011;63016;55.030;38.710;2023-04-03T04:02:06;15.73;;;5.88;;
74543;SDS011;63016;55.030;38.710;2023-04-03T04:04:32;10.07;;;4.88;;
74543;SDS011;63016;55.030;38.710;2023-04-03T04:06:58;9.35;;;5.20;;
74543;SDS011;63016;55.030;38.710;2023-04-03T04:09:25;8.80;;;5.32;;
74543;SDS011;63016;55.030;38.710;2023-04-03T04:11:51;12.13;;;4.90;;
74543;SDS011;63016;55.030;38.710;2023-04-03T04:14:16;11.57;;;4.75;;
74543;SDS011;63016;55.030;38.710;2023-04-03T04:16:42;13.43;;;4.32;;
74543;SDS011;63016;55.030;38.710;2023-04-03T04:19:08;20.42;;;5.97;;
74543;SDS011;63016;55.030;38.710;2023-04-03T04:21:33;10.35;;;5.35;;
74543;SDS011;63016;55.030;38.710;2023-04-03T04:24:00;14.07;;;7.32;;
74543;SDS011;63016;55.030;38.710;2023-04-03T04:26:26;19.40;;;7.85;;
74543;SDS011;63016;55.030;38.710;2023-04-03T04:28:51;17.75;;;8.73;;
74543;SDS011;63016;55.030;38.710;2023-04-03T04:31:17;17.75;;;7.78;;
74543;SDS011;63016;55.030;38.710;2023-04-03T04:33:42;16.65;;;8.50;;
74543;SDS011;63016;55.030;38.710;2023-04-03T04:36:07;15.52;;;7.05;;
74543;SDS011;63016;55.030;38.710;2023-04-03T04:38:33;20.30;;;7.43;;
74543;SDS011;63016;55.030;38.710;2023-04-03T04:40:58;18.98;;;8.10;;
74543;SDS011;63016;55.030;38.710;2023-04-03T04:43:24;15.73;;;7.35;;
74543;SDS011;63016;55.030;38.710;2023-04-03T04:45:59;19.42;;;8.27;;
74543;SDS011;63016;55.030;38.710;2023-04-03T04:48:26;19.63;;;7.95;;
74543;SDS011;63016;55.030;38.710;2023-04-03T04:50:51;16.13;;;7.53;;
74543;SDS011;63016;55.030;38.710;2023-04-03T04:53:17;13.27;;;7.40;;
74543;SDS011;63016;55.030;38.710;2023-04-03T04:55:42;18.50;;;8.20;;
74543;SDS011;63016;55.030;38.710;2023-04-03T04:58:08;19.25;;;6.95;;
74543;SDS011;63016;55.030;38.710;2023-04-03T05:00:33;13.25;;;5.72;;
74543;SDS011;63016;55.030;38.710;2023-04-03T05:02:59;13.77;;;6.68;;
74543;SDS011;63016;55.030;38.710;2023-04-03T05:05:24;15.25;;;5.90;;
74543;SDS011;63016;55.030;38.710;2023-04-03T05:07:50;13.95;;;6.60;;
74543;SDS011;63016;55.030;38.710;2023-04-03T05:10:15;11.85;;;5.97;;
74543;SDS011;63016;55.030;38.710;2023-04-03T05:12:41;11.07;;;6.25;;
74543;SDS011;63016;55.030;38.710;2023-04-03T05:15:06;10.05;;;5.65;;
74543;SDS011;63016;55.030;38.710;2023-04-03T05:17:32;20.98;;;6.38;;
74543;SDS011;63016;55.030;38.710;2023-04-03T05:19:58;15.43;;;5.97;;
74543;SDS011;63016;55.030;38.710;2023-04-03T05:25:08;40.80;;;7.28;;
74543;SDS011;63016;55.030;38.710;2023-04-03T05:27:34;13.45;;;5.82;;
74543;SDS011;63016;55.030;38.710;2023-04-03T05:29:59;12.65;;;5.35;;
74543;SDS011;63016;55.030;38.710;2023-04-03T05:32:43;20.17;;;5.65;;
74543;SDS011;63016;55.030;38.710;2023-04-03T05:35:10;14.00;;;5.63;;
74543;SDS011;63016;55.030;38.710;2023-04-03T05:37:55;10.25;;;5.78;;
74543;SDS011;63016;55.030;38.710;2023-04-03T05:40:20;13.27;;;5.22;;
74543;SDS011;63016;55.030;38.710;2023-04-03T05:42:46;11.90;;;5.05;;
74543;SDS011;63016;55.030;38.710;2023-04-03T05:45:12;14.68;;;5.07;;
74543;SDS011;63016;55.030;38.710;2023-04-03T05:47:37;10.23;;;4.88;;
74543;SDS011;63016;55.030;38.710;2023-04-03T05:50:03;11.25;;;5.28;;
74543;SDS011;63016;55.030;38.710;2023-04-03T05:52:30;13.10;;;6.15;;
74543;SDS011;63016;55.030;38.710;2023-04-03T05:55:02;21.23;;;6.05;;
74543;SDS011;63016;55.030;38.710;2023-04-03T05:57:28;12.18;;;5.07;;
74543;SDS011;63016;55.030;38.710;2023-04-03T05:59:54;9.85;;;5.07;;
74543;SDS011;63016;55.030;38.710;2023-04-03T06:02:22;11.52;;;5.38;;
74543;SDS011;63016;55.030;38.710;2023-04-03T06:04:50;8.55;;;5.43;;
74543;SDS011;63016;55.030;38.710;2023-04-03T06:07:17;9.65;;;5.22;;
74543;SDS011;63016;55.030;38.710;2023-04-03T06:10:03;8.38;;;5.05;;
74543;SDS011;63016;55.030;38.710;2023-04-03T06:12:29;9.05;;;5.18;;
74543;SDS011;63016;55.030;38.710;2023-04-03T06:14:55;11.27;;;5.25;;
74543;SDS011;63016;55.030;38.710;2023-04-03T06:17:20;9.70;;;5.28;;
74543;SDS011;63016;55.030;38.710;2023-04-03T06:19:46;10.25;;;5.10;;
74543;SDS011;63016;55.030;38.710;2023-04-03T06:22:12;8.15;;;4.53;;
74543;SDS011;63016;55.030;38.710;2023-04-03T06:24:38;12.30;;;4.95;;
74543;SDS011;63016;55.030;38.710;2023-04-03T06:27:05;10.23;;;5.18;;
74543;SDS011;63016;55.030;38.710;2023-04-03T06:29:31;9.27;;;4.65;;
74543;SDS011;63016;55.030;38.710;2023-04-03T06:31:56;8.35;;;4.60;;
74543;SDS011;63016;55.030;38.710;2023-04-03T06:34:22;8.02;;;5.00;;
74543;SDS011;63016;55.030;38.710;2023-04-03T06:36:50;8.90;;;5.20;;
74543;SDS011;63016;55.030;38.710;2023-04-03T06:39:17;9.50;;;4.85;;
74543;SDS011;63016;55.030;38.710;2023-04-03T06:41:50;9.98;;;4.60;;
74543;SDS011;63016;55.030;38.710;2023-04-03T06:44:16;12.20;;;4.88;;
74543;SDS011;63016;55.030;38.710;2023-04-03T06:46:43;8.30;;;4.97;;
74543;SDS011;63016;55.030;38.710;2023-04-03T06:49:10;7.45;;;4.07;;
74543;SDS011;63016;55.030;38.710;2023-04-03T06:51:36;8.48;;;5.30;;
74543;SDS011;63016;55.030;38.710;2023-04-03T06:54:02;12.93;;;5.38;;
74543;SDS011;63016;55.030;38.710;2023-04-03T06:56:29;11.82;;;5.85;;
74543;SDS011;63016;55.030;38.710;2023-04-03T06:58:55;9.32;;;4.63;;
74543;SDS011;63016;55.030;38.710;2023-04-03T07:01:23;11.88;;;4.50;;
74543;SDS011;63016;55.030;38.710;2023-04-03T07:03:51;11.57;;;4.97;;
74543;SDS011;63016;55.030;38.710;2023-04-03T07:06:17;8.40;;;4.72;;
74543;SDS011;63016;55.030;38.710;2023-04-03T07:08:44;10.25;;;5.15;;
74543;SDS011;63016;55.030;38.710;2023-04-03T07:11:12;9.68;;;4.80;;
74543;SDS011;63016;55.030;38.710;2023-04-03T07:13:38;10.55;;;4.50;;
74543;SDS011;63016;55.030;38.710;2023-04-03T07:16:03;10.77;;;5.30;;
74543;SDS011;63016;55.030;38.710;2023-04-03T07:18:30;9.57;;;5.00;;
74543;SDS011;63016;55.030;38.710;2023-04-03T07:20:56;9.20;;;5.47;;
74543;SDS011;63016;55.030;38.710;2023-04-03T07:23:22;13.10;;;5.00;;
74543;SDS011;63016;55.030;38.710;2023-04-03T07:25:49;10.65;;;5.07;;
74543;SDS011;63016;55.030;38.710;2023-04-03T07:28:16;11.02;;;4.85;;
74543;SDS011;63016;55.030;38.710;2023-04-03T07:30:52;8.82;;;5.22;;
74543;SDS011;63016;55.030;38.710;2023-04-03T07:33:23;10.30;;;5.20;;
74543;SDS011;63016;55.030;38.710;2023-04-03T07:35:49;7.88;;;4.85;;
74543;SDS011;63016;55.030;38.710;2023-04-03T07:38:15;7.95;;;5.38;;
74543;SDS011;63016;55.030;38.710;2023-04-03T07:40:45;9.70;;;5.18;;
74543;SDS011;63016;55.030;38.710;2023-04-03T07:43:18;14.38;;;5.35;;
74543;SDS011;63016;55.030;38.710;2023-04-03T07:45:45;10.18;;;4.95;;
74543;SDS011;63016;55.030;38.710;2023-04-03T07:48:11;7.70;;;4.70;;
74543;SDS011;63016;55.030;38.710;2023-04-03T07:50:39;11.57;;;4.90;;
74543;SDS011;63016;55.030;38.710;2023-04-03T07:53:05;13.45;;;4.78;;
74543;SDS011;63016;55.030;38.710;2023-04-03T07:55:31;10.45;;;4.65;;
74543;SDS011;63016;55.030;38.710;2023-04-03T07:57:57;7.30;;;4.40;;
74543;SDS011;63016;55.030;38.710;2023-04-03T08:00:22;13.27;;;5.18;;
74543;SDS011;63016;55.030;38.710;2023-04-03T08:02:48;10.68;;;5.60;;
74543;SDS011;63016;55.030;38.710;2023-04-03T08:05:17;8.93;;;5.00;;
74543;SDS011;63016;55.030;38.710;2023-04-03T08:07:43;10.23;;;5.25;;
74543;SDS011;63016;55.030;38.710;2023-04-03T08:10:09;22.85;;;5.57;;
74543;SDS011;63016;55.030;38.710;2023-04-03T08:12:35;14.27;;;5.78;;
74543;SDS011;63016;55.030;38.710;2023-04-03T08:15:02;9.82;;;3.53;;
74543;SDS011;63016;55.030;38.710;2023-04-03T08:17:28;15.13;;;4.35;;
74543;SDS011;63016;55.030;38.710;2023-04-03T08:19:54;10.20;;;4.65;;
74543;SDS011;63016;55.030;38.710;2023-04-03T08:22:20;15.68;;;4.38;;
74543;SDS011;63016;55.030;38.710;2023-04-03T08:24:45;10.55;;;4.93;;
74543;SDS011;63016;55.030;38.710;2023-04-03T08:27:11;9.70;;;4.30;;
74543;SDS011;63016;55.030;38.710;2023-04-03T08:29:37;11.48;;;3.92;;
74543;SDS011;63016;55.030;38.710;2023-04-03T08:32:03;8.02;;;4.47;;
74543;SDS011;63016;55.030;38.710;2023-04-03T08:34:32;11.45;;;4.10;;
74543;SDS011;63016;55.030;38.710;2023-04-03T08:37:02;8.05;;;3.83;;
74543;SDS011;63016;55.030;38.710;2023-04-03T08:39:27;9.63;;;3.53;;
74543;SDS011;63016;55.030;38.710;2023-04-03T08:41:53;9.82;;;4.03;;
74543;SDS011;63016;55.030;38.710;2023-04-03T08:44:34;8.82;;;4.07;;
74543;SDS011;63016;55.030;38.710;2023-04-03T08:47:32;7.72;;;3.40;;
74543;SDS011;63016;55.030;38.710;2023-04-03T08:50:05;13.88;;;4.65;;
74543;SDS011;63016;55.030;38.710;2023-04-03T08:55:04;8.50;;;4.13;;
74543;SDS011;63016;55.030;38.710;2023-04-03T08:57:47;12.65;;;3.97;;
74543;SDS011;63016;55.030;38.710;2023-04-03T09:02:46;7.57;;;4.22;;
74543;SDS011;63016;55.030;38.710;2023-04-03T09:05:24;8.43;;;3.58;;
74543;SDS011;63016;55.030;38.710;2023-04-03T09:08:00;9.02;;;4.45;;
74543;SDS011;63016;55.030;38.710;2023-04-03T09:10:33;6.47;;;4.40;;
74543;SDS011;63016;55.030;38.710;2023-04-03T09:13:06;7.10;;;3.60;;
74543;SDS011;63016;55.030;38.710;2023-04-03T09:15:46;10.15;;;4.13;;
74543;SDS011;63016;55.030;38.710;2023-04-03T09:18:23;5.90;;;3.97;;
74543;SDS011;63016;55.030;38.710;2023-04-03T09:24:07;12.57;;;5.03;;
74543;SDS011;63016;55.030;38.710;2023-04-03T09:26:55;23.70;;;6.40;;
74543;SDS011;63016;55.030;38.710;2023-04-03T09:29:25;19.88;;;6.25;;
74543;SDS011;63016;55.030;38.710;2023-04-03T09:31:59;19.80;;;7.30;;
74543;SDS011;63016;55.030;38.710;2023-04-03T09:34:27;20.92;;;6.53;;
74543;SDS011;63016;55.030;38.710;2023-04-03T09:36:56;18.40;;;6.53;;
74543;SDS011;63016;55.030;38.710;2023-04-03T09:39:31;18.35;;;6.60;;
74543;SDS011;63016;55.030;38.710;2023-04-03T09:44:28;23.10;;;7.30;;
74543;SDS011;63016;55.030;38.710;2023-04-03T09:46:56;15.43;;;6.30;;
74543;SDS011;63016;55.030;38.710;2023-04-03T09:49:22;13.25;;;6.13;;
74543;SDS011;63016;55.030;38.710;2023-04-03T09:51:48;15.00;;;6.22;;
74543;SDS011;63016;55.030;38.710;2023-04-03T09:54:24;15.10;;;5.90;;
74543;SDS011;63016;55.030;38.710;2023-04-03T09:56:55;10.18;;;5.65;;
74543;SDS011;63016;55.030;38.710;2023-04-03T09:59:26;14.93;;;6.20;;
74543;SDS011;63016;55.030;38.710;2023-04-03T10:05:25;9.80;;;4.97;;
74543;SDS011;63016;55.030;38.710;2023-04-03T10:08:06;8.52;;;4.85;;
74543;SDS011;63016;55.030;38.710;2023-04-03T10:10:39;7.22;;;4.60;;
74543;SDS011;63016;55.030;38.710;2023-04-03T10:15:46;8.05;;;4.45;;
74543;SDS011;63016;55.030;38.710;2023-04-03T10:20:58;6.47;;;4.00;;
74543;SDS011;63016;55.030;38.710;2023-04-03T10:23:33;6.15;;;4.03;;
74543;SDS011;63016;55.030;38.710;2023-04-03T10:26:31;8.50;;;4.32;;
74543;SDS011;63016;55.030;38.710;2023-04-03T10:34:42;7.55;;;4.10;;
74543;SDS011;63016;55.030;38.710;2023-04-03T10:39:46;12.15;;;4.22;;
74543;SDS011;63016;55.030;38.710;2023-04-03T10:45:15;7.18;;;4.30;;
74543;SDS011;63016;55.030;38.710;2023-04-03T10:51:17;6.63;;;3.28;;
74543;SDS011;63016;55.030;38.710;2023-04-03T10:56:42;7.65;;;3.40;;
74543;SDS011;63016;55.030;38.710;2023-04-03T10:59:23;15.27;;;3.90;;
74543;SDS011;63016;55.030;38.710;2023-04-03T11:02:17;17.30;;;3.90;;
74543;SDS011;63016;55.030;38.710;2023-04-03T11:04:50;10.52;;;3.60;;
74543;SDS011;63016;55.030;38.710;2023-04-03T11:07:20;10.57;;;3.15;;
74543;SDS011;63016;55.030;38.710;2023-04-03T11:09:50;9.00;;;3.17;;
74543;SDS011;63016;55.030;38.710;2023-04-03T11:12:36;7.25;;;2.25;;
74543;SDS011;63016;55.030;38.710;2023-04-03T11:15:11;7.25;;;3.03;;
74543;SDS011;63016;55.030;38.710;2023-04-03T11:17:43;7.55;;;2.95;;
74543;SDS011;63016;55.030;38.710;2023-04-03T11:22:53;9.02;;;3.17;;
74543;SDS011;63016;55.030;38.710;2023-04-03T11:25:26;5.10;;;3.53;;
74543;SDS011;63016;55.030;38.710;2023-04-03T11:28:05;12.05;;;3.60;;
74543;SDS011;63016;55.030;38.710;2023-04-03T11:33:24;10.93;;;3.97;;
74543;SDS011;63016;55.030;38.710;2023-04-03T11:36:00;5.38;;;2.95;;
74543;SDS011;63016;55.030;38.710;2023-04-03T11:38:38;6.80;;;3.30;;
74543;SDS011;63016;55.030;38.710;2023-04-03T11:41:08;4.53;;;2.70;;
74543;SDS011;63016;55.030;38.710;2023-04-03T11:43:39;6.35;;;3.25;;
74543;SDS011;63016;55.030;38.710;2023-04-03T11:46:07;5.78;;;3.10;;
74543;SDS011;63016;55.030;38.710;2023-04-03T11:51:00;4.57;;;2.90;;
74543;SDS011;63016;55.030;38.710;2023-04-03T11:53:28;7.03;;;3.42;;
74543;SDS011;63016;55.030;38.710;2023-04-03T11:55:57;4.88;;;2.90;;
74543;SDS011;63016;55.030;38.710;2023-04-03T11:58:26;6.95;;;3.17;;
74543;SDS011;63016;55.030;38.710;2023-04-03T12:00:57;7.57;;;3.40;;
74543;SDS011;63016;55.030;38.710;2023-04-03T12:03:32;4.40;;;3.08;;
74543;SDS011;63016;55.030;38.710;2023-04-03T12:13:37;4.03;;;2.50;;
74543;SDS011;63016;55.030;38.710;2023-04-03T12:16:06;4.93;;;2.20;;
74543;SDS011;63016;55.030;38.710;2023-04-03T12:21:19;3.03;;;2.22;;
74543;SDS011;63016;55.030;38.710;2023-04-03T12:26:44;4.75;;;3.00;;
74543;SDS011;63016;55.030;38.710;2023-04-03T12:29:23;3.35;;;2.45;;
74543;SDS011;63016;55.030;38.710;2023-04-03T12:45:48;3.78;;;2.35;;
74543;SDS011;63016;55.030;38.710;2023-04-03T12:51:18;4.40;;;2.20;;
74543;SDS011;63016;55.030;38.710;2023-04-03T12:53:48;4.60;;;2.45;;
74543;SDS011;63016;55.030;38.710;2023-04-03T12:58:53;4.53;;;2.55;;
74543;SDS011;63016;55.030;38.710;2023-04-03T13:01:25;4.25;;;2.25;;
74543;SDS011;63016;55.030;38.710;2023-04-03T13:03:52;4.13;;;2.60;;
74543;SDS011;63016;55.030;38.710;2023-04-03T13:06:24;3.58;;;2.40;;
74543;SDS011;63016;55.030;38.710;2023-04-03T13:08:59;4.70;;;2.60;;
74543;SDS011;63016;55.030;38.710;2023-04-03T13:11:35;4.03;;;2.30;;
74543;SDS011;63016;55.030;38.710;2023-04-03T13:14:12;3.70;;;2.28;;
74543;SDS011;63016;55.030;38.710;2023-04-03T13:16:41;3.28;;;2.40;;
74543;SDS011;63016;55.030;38.710;2023-04-03T13:19:14;3.35;;;2.50;;
74543;SDS011;63016;55.030;38.710;2023-04-03T13:21:41;3.88;;;2.80;;
74543;SDS011;63016;55.030;38.710;2023-04-03T13:24:09;6.40;;;2.45;;
74543;SDS011;63016;55.030;38.710;2023-04-03T13:26:36;5.35;;;2.58;;
74543;SDS011;63016;55.030;38.710;2023-04-03T13:29:06;6.57;;;2.75;;
74543;SDS011;63016;55.030;38.710;2023-04-03T13:31:44;5.70;;;2.55;;
74543;SDS011;63016;55.030;38.710;2023-04-03T13:36:37;4.03;;;2.50;;
74543;SDS011;63016;55.030;38.710;2023-04-03T13:41:38;5.38;;;2.63;;
74543;SDS011;63016;55.030;38.710;2023-04-03T13:44:24;6.45;;;2.60;;
74543;SDS011;63016;55.030;38.710;2023-04-03T13:46:54;6.47;;;2.45;;
74543;SDS011;63016;55.030;38.710;2023-04-03T13:52:49;7.03;;;2.60;;
74543;SDS011;63016;55.030;38.710;2023-04-03T14:00:39;9.55;;;2.85;;
74543;SDS011;63016;55.030;38.710;2023-04-03T14:03:23;5.15;;;2.70;;
74543;SDS011;63016;55.030;38.710;2023-04-03T14:05:56;4.93;;;2.57;;
74543;SDS011;63016;55.030;38.710;2023-04-03T14:08:22;7.93;;;3.15;;
74543;SDS011;63016;55.030;38.710;2023-04-03T14:10:48;5.53;;;3.10;;
74543;SDS011;63016;55.030;38.710;2023-04-03T14:13:17;4.97;;;3.10;;
74543;SDS011;63016;55.030;38.710;2023-04-03T14:15:44;7.22;;;3.08;;
74543;SDS011;63016;55.030;38.710;2023-04-03T14:18:16;6.90;;;3.58;;
74543;SDS011;63016;55.030;38.710;2023-04-03T14:20:44;7.47;;;3.30;;
74543;SDS011;63016;55.030;38.710;2023-04-03T14:23:09;7.65;;;2.90;;
74543;SDS011;63016;55.030;38.710;2023-04-03T14:25:35;4.95;;;3.28;;
74543;SDS011;63016;55.030;38.710;2023-04-03T14:28:10;4.90;;;2.70;;
74543;SDS011;63016;55.030;38.710;2023-04-03T14:30:42;2.88;;;2.20;;
74543;SDS011;63016;55.030;38.710;2023-04-03T14:33:10;5.00;;;2.30;;
74543;SDS011;63016;55.030;38.710;2023-04-03T14:35:39;3.58;;;2.53;;
74543;SDS011;63016;55.030;38.710;2023-04-03T14:38:10;6.05;;;2.70;;
74543;SDS011;63016;55.030;38.710;2023-04-03T14:40:45;4.53;;;2.80;;
74543;SDS011;63016;55.030;38.710;2023-04-03T14:43:12;4.80;;;2.90;;
74543;SDS011;63016;55.030;38.710;2023-04-03T14:45:37;7.03;;;3.88;;
74543;SDS011;63016;55.030;38.710;2023-04-03T14:48:04;7.18;;;3.70;;
74543;SDS011;63016;55.030;38.710;2023-04-03T14:50:41;8.93;;;3.90;;
74543;SDS011;63016;55.030;38.710;2023-04-03T14:53:06;6.72;;;4.07;;
74543;SDS011;63016;55.030;38.710;2023-04-03T14:55:32;8.35;;;4.13;;
74543;SDS011;63016;55.030;38.710;2023-04-03T14:57:58;8.25;;;4.70;;
74543;SDS011;63016;55.030;38.710;2023-04-03T15:00:23;13.50;;;4.50;;
74543;SDS011;63016;55.030;38.710;2023-04-03T15:02:49;15.48;;;5.00;;
74543;SDS011;63016;55.030;38.710;2023-04-03T15:05:15;30.45;;;5.50;;
74543;SDS011;63016;55.030;38.710;2023-04-03T15:07:47;33.75;;;5.68;;
74543;SDS011;63016;55.030;38.710;2023-04-03T15:10:25;20.02;;;5.25;;
74543;SDS011;63016;55.030;38.710;2023-04-03T15:12:55;29.45;;;5.78;;
74543;SDS011;63016;55.030;38.710;2023-04-03T15:15:21;22.45;;;4.78;;
74543;SDS011;63016;55.030;38.710;2023-04-03T15:17:55;8.43;;;3.08;;
74543;SDS011;63016;55.030;38.710;2023-04-03T15:20:25;10.20;;;3.78;;
74543;SDS011;63016;55.030;38.710;2023-04-03T15:22:53;9.70;;;3.60;;
74543;SDS011;63016;55.030;38.710;2023-04-03T15:25:19;8.20;;;3.83;;
74543;SDS011;63016;55.030;38.710;2023-04-03T15:27:44;11.63;;;4.10;;
74543;SDS011;63016;55.030;38.710;2023-04-03T15:30:14;14.55;;;4.40;;
74543;SDS011;63016;55.030;38.710;2023-04-03T15:32:42;6.32;;;3.58;;
74543;SDS011;63016;55.030;38.710;2023-04-03T15:35:08;11.75;;;3.70;;
74543;SDS011;63016;55.030;38.710;2023-04-03T15:37:33;8.25;;;3.20;;
74543;SDS011;63016;55.030;38.710;2023-04-03T15:39:59;8.70;;;3.95;;
74543;SDS011;63016;55.030;38.710;2023-04-03T15:42:24;11.13;;;3.83;;
74543;SDS011;63016;55.030;38.710;2023-04-03T15:44:50;8.18;;;3.75;;
74543;SDS011;63016;55.030;38.710;2023-04-03T15:47:15;4.50;;;2.80;;
74543;SDS011;63016;55.030;38.710;2023-04-03T15:49:41;9.02;;;2.20;;
74543;SDS011;63016;55.030;38.710;2023-04-03T15:52:07;5.65;;;2.40;;
74543;SDS011;63016;55.030;38.710;2023-04-03T15:54:32;3.78;;;2.00;;
74543;SDS011;63016;55.030;38.710;2023-04-03T15:56:58;2.67;;;1.85;;
74543;SDS011;63016;55.030;38.710;2023-04-03T15:59:24;8.25;;;1.67;;
74543;SDS011;63016;55.030;38.710;2023-04-03T16:01:49;4.93;;;1.85;;
74543;SDS011;63016;55.030;38.710;2023-04-03T16:04:16;6.20;;;1.50;;
74543;SDS011;63016;55.030;38.710;2023-04-03T16:06:43;4.22;;;1.50;;
74543;SDS011;63016;55.030;38.710;2023-04-03T16:09:08;2.88;;;1.60;;
74543;SDS011;63016;55.030;38.710;2023-04-03T16:11:35;1.88;;;1.27;;
74543;SDS011;63016;55.030;38.710;2023-04-03T16:14:02;4.35;;;1.60;;
74543;SDS011;63016;55.030;38.710;2023-04-03T16:16:28;3.88;;;1.58;;
74543;SDS011;63016;55.030;38.710;2023-04-03T16:18:55;2.70;;;1.30;;
74543;SDS011;63016;55.030;38.710;2023-04-03T16:21:21;2.95;;;1.20;;
74543;SDS011;63016;55.030;38.710;2023-04-03T16:23:47;1.50;;;1.20;;